Time;durP1;ratioP1;P1;durP2;ratioP2;P2;SDS_P1;SDS_P2;PMS_P1;PMS_P2;Temp;Humidity;BMP_temperature;BMP_pressure;BME280_temperature;BME280_humidity;BME280_pressure;Samples;Min_cycle;Max_cycle;Signal;HPM_P1;HPM_P2
2023/10/05 00:01:56;;;;;;;16.73;3.67;;;;;;;13.20;100.00;102169.72;5045518;28;20124;-70
2023/10/05 00:04:24;;;;;;;16.25;3.45;;;;;;;13.16;100.00;102170.03;5042507;28;20384;-70
2023/10/05 00:06:53;;;;;;;14.15;3.30;;;;;;;13.18;100.00;102174.38;5056456;28;20024;-70
2023/10/05 00:09:19;;;;;;;13.48;3.22;;;;;;;13.20;100.00;102185.06;5047389;28;20452;-70
2023/10/05 00:11:44;;;;;;;10.98;3.25;;;;;;;13.19;100.00;102176.13;5042745;28;20110;-70
2023/10/05 00:14:10;;;;;;;11.50;3.33;;;;;;;13.21;100.00;102174.19;5039290;28;20040;-70
2023/10/05 00:16:36;;;;;;;16.80;3.85;;;;;;;13.21;100.00;102179.56;5047533;28;20102;-69
2023/10/05 00:19:09;;;;;;;18.30;3.63;;;;;;;13.20;100.00;102183.22;5055966;28;20028;-71
2023/10/05 00:21:35;;;;;;;13.32;3.20;;;;;;;13.17;100.00;102182.56;5065366;28;20036;-69
2023/10/05 00:24:02;;;;;;;12.60;3.33;;;;;;;13.19;100.00;102184.22;5060650;28;20491;-71
2023/10/05 00:26:32;;;;;;;18.30;4.07;;;;;;;13.18;100.00;102184.31;5054706;28;20029;-70
2023/10/05 00:31:41;;;;;;;12.85;3.25;;;;;;;13.19;100.00;102184.22;5057944;28;19923;-70
2023/10/05 00:34:09;;;;;;;16.65;4.03;;;;;;;13.21;100.00;102194.91;5054946;28;20028;-69
2023/10/05 00:36:39;;;;;;;10.90;2.85;;;;;;;13.20;100.00;102198.56;5053050;28;20093;-69
2023/10/05 00:39:09;;;;;;;12.27;2.88;;;;;;;13.19;100.00;102197.72;5057877;28;20055;-70
2023/10/05 00:41:36;;;;;;;12.48;3.38;;;;;;;13.19;100.00;102199.53;5052521;28;20040;-69
2023/10/05 00:44:01;;;;;;;15.80;3.55;;;;;;;13.19;100.00;102202.22;5055339;28;20086;-69
2023/10/05 00:46:31;;;;;;;15.80;3.85;;;;;;;13.20;100.00;102201.28;5048111;28;20108;-69
2023/10/05 00:49:04;;;;;;;;;;;;;;;13.23;100.00;102204.63;5048894;28;20025;-70
2023/10/05 00:51:33;;;;;;;15.93;3.30;;;;;;;13.20;100.00;102204.81;5048362;28;20288;-69
2023/10/05 00:54:10;;;;;;;;;;;;;;;13.23;100.00;102198.38;5060744;28;20032;-69
2023/10/05 00:56:38;;;;;;;15.68;3.22;;;;;;;13.18;100.00;102197.81;5058930;28;20065;-70
2023/10/05 00:59:09;;;;;;;13.40;3.78;;;;;;;13.17;100.00;102204.16;5059452;28;20025;-70
2023/10/05 01:01:59;;;;;;;12.45;3.13;;;;;;;13.17;100.00;102194.22;5044962;28;20044;-73
2023/10/05 01:04:27;;;;;;;14.20;3.22;;;;;;;13.18;100.00;102206.78;5059131;28;20086;-73
2023/10/05 01:07:00;;;;;;;15.93;3.60;;;;;;;13.18;100.00;102205.91;5051850;28;20048;-73
2023/10/05 01:14:53;;;;;;;15.25;3.30;;;;;;;13.16;100.00;102214.06;5059519;28;20135;-73
2023/10/05 01:17:22;;;;;;;15.95;3.65;;;;;;;13.13;100.00;102198.06;5062498;28;20052;-73
2023/10/05 01:19:55;;;;;;;13.00;3.80;;;;;;;13.15;100.00;102197.97;5049245;28;20427;-72
2023/10/05 01:22:21;;;;;;;13.10;3.53;;;;;;;13.10;100.00;102188.34;5051394;28;20031;-73
2023/10/05 01:24:50;;;;;;;16.38;3.50;;;;;;;13.13;100.00;102195.38;5058462;28;20392;-73
2023/10/05 01:27:18;;;;;;;12.95;4.35;;;;;;;13.14;100.00;102205.22;5052328;28;20024;-73
2023/10/05 01:29:43;;;;;;;15.27;3.75;;;;;;;13.12;100.00;102190.97;5059175;28;20033;-73
2023/10/05 01:32:14;;;;;;;14.30;3.95;;;;;;;13.12;100.00;102190.97;5054644;28;20518;-74
2023/10/05 01:34:39;;;;;;;16.70;3.95;;;;;;;13.12;100.00;102185.56;5033235;28;20098;-73
2023/10/05 01:37:12;;;;;;;13.40;3.38;;;;;;;13.13;100.00;102191.81;5056989;28;20032;-73
2023/10/05 01:39:43;;;;;;;14.98;3.95;;;;;;;13.15;100.00;102197.97;5052596;28;20029;-73
2023/10/05 01:42:11;;;;;;;12.57;3.22;;;;;;;13.13;100.00;102198.06;5056835;28;20158;-73
2023/10/05 01:44:38;;;;;;;16.92;3.67;;;;;;;13.14;100.00;102188.16;5057338;28;20122;-74
2023/10/05 01:47:03;;;;;;;12.13;3.47;;;;;;;13.15;100.00;102189.88;5056597;28;20526;-73
2023/10/05 01:49:29;;;;;;;16.20;3.83;;;;;;;13.15;100.00;102184.47;5061398;28;20044;-73
2023/10/05 01:51:56;;;;;;;18.85;3.22;;;;;;;13.14;100.00;102189.03;5058998;28;20028;-73
2023/10/05 01:54:26;;;;;;;19.15;3.75;;;;;;;13.10;100.00;102182.97;5054323;28;20369;-73
2023/10/05 01:56:51;;;;;;;9.65;3.13;;;;;;;13.12;100.00;102182.88;5054298;28;20028;-73
2023/10/05 01:59:20;;;;;;;8.32;3.20;;;;;;;13.14;100.00;102183.63;5044145;28;20029;-73
2023/10/05 02:01:46;;;;;;;13.70;3.88;;;;;;;13.16;100.00;102194.31;5063910;28;20028;-73
2023/10/05 02:04:11;;;;;;;15.18;3.40;;;;;;;13.14;100.00;102189.03;5049469;28;20075;-73
2023/10/05 02:06:48;;;;;;;12.65;3.20;;;;;;;13.12;100.00;102188.25;5060744;28;20115;-73
2023/10/05 02:09:14;;;;;;;15.88;2.58;;;;;;;13.12;100.00;102185.56;5055498;28;20021;-73
2023/10/05 02:11:41;;;;;;;7.53;2.55;;;;;;;13.08;100.00;102187.56;5061792;28;20460;-72
2023/10/05 02:14:06;;;;;;;15.10;4.10;;;;;;;13.07;100.00;102182.28;5052046;28;20024;-72
2023/10/05 02:16:32;;;;;;;13.43;3.25;;;;;;;13.06;100.00;102181.41;5060430;28;20099;-73
2023/10/05 02:19:04;;;;;;;13.40;3.30;;;;;;;13.03;100.00;102170.81;5057522;28;20032;-72
2023/10/05 02:21:38;;;;;;;12.15;3.38;;;;;;;13.05;100.00;102176.13;5054222;28;20060;-72
2023/10/05 02:24:16;;;;;;;14.43;3.53;;;;;;;13.02;100.00;102179.00;5063276;28;20035;-72
2023/10/05 02:29:28;;;;;;;13.00;4.00;;;;;;;12.98;100.00;102180.16;5051852;28;20044;-72
2023/10/05 02:35:18;;;;;;;13.90;3.25;;;;;;;12.98;100.00;102177.47;5065662;28;20036;-72
2023/10/05 02:37:19;;;;;;;16.92;3.58;;;;;;;12.97;100.00;102173.00;5047763;28;20041;-73
2023/10/05 02:39:45;;;;;;;11.43;2.85;;;;;;;12.96;100.00;102163.16;5059828;28;20037;-73
2023/10/05 02:42:14;;;;;;;18.05;4.03;;;;;;;12.94;100.00;102160.56;5067109;28;20033;-72
2023/10/05 02:44:40;;;;;;;12.73;3.40;;;;;;;12.93;100.00;102165.13;5062099;28;20039;-73
2023/10/05 02:47:08;;;;;;;7.78;2.72;;;;;;;12.93;100.00;102157.00;5049637;28;20073;-72
2023/10/05 02:49:35;;;;;;;20.75;4.43;;;;;;;12.93;100.00;102154.31;5052700;28;20025;-73
2023/10/05 02:52:04;;;;;;;11.70;3.03;;;;;;;12.92;100.00;102157.13;5061812;28;20440;-72
2023/10/05 02:54:30;;;;;;;14.43;3.13;;;;;;;12.91;100.00;102156.25;5067720;28;20086;-72
2023/10/05 02:56:56;;;;;;;14.13;3.67;;;;;;;12.91;100.00;102156.25;5055178;28;20025;-72
2023/10/05 02:59:26;;;;;;;13.40;3.80;;;;;;;12.86;100.00;102158.34;5059514;28;20581;-72
2023/10/05 03:01:55;;;;;;;16.52;3.75;;;;;;;12.86;100.00;102149.41;5058054;28;20036;-72
2023/10/05 03:04:21;;;;;;;12.18;3.47;;;;;;;12.88;100.00;102167.22;5050913;28;20041;-72
2023/10/05 03:06:52;;;;;;;15.07;3.38;;;;;;;12.84;100.00;102164.81;5064646;28;20020;-72
2023/10/05 03:09:18;;;;;;;17.48;4.03;;;;;;;12.85;100.00;102156.63;5061547;28;20436;-72
2023/10/05 03:11:47;;;;;;;15.18;3.75;;;;;;;12.85;100.00;102155.75;5059576;28;20064;-72
2023/10/05 03:14:16;;;;;;;12.18;3.38;;;;;;;12.80;100.00;102147.06;5066704;28;20050;-73
2023/10/05 03:16:47;;;;;;;18.40;4.10;;;;;;;12.85;100.00;102145.81;5067192;28;20135;-73
2023/10/05 03:19:21;;;;;;;14.32;3.88;;;;;;;12.81;100.00;102148.81;5055465;28;20480;-72
2023/10/05 03:22:04;;;;;;;18.05;3.58;;;;;;;12.81;100.00;102155.09;5060851;28;20037;-72
2023/10/05 03:24:30;;;;;;;17.40;4.32;;;;;;;12.83;100.00;102157.69;5055066;28;20024;-72
2023/10/05 03:26:55;;;;;;;11.13;3.33;;;;;;;12.77;100.00;102149.00;5056031;28;20033;-72
2023/10/05 03:29:21;;;;;;;16.02;3.70;;;;;;;12.75;100.00;102148.25;5054627;28;20029;-72
2023/10/05 03:31:54;;;;;;;15.38;3.83;;;;;;;12.78;100.00;102152.56;5065307;28;20030;-72
2023/10/05 03:34:26;;;;;;;15.80;3.78;;;;;;;12.75;100.00;102139.25;5054474;28;20037;-72
2023/10/05 03:36:55;;;;;;;11.82;3.40;;;;;;;12.76;100.00;102141.00;5053855;28;20033;-72
2023/10/05 03:39:23;;;;;;;15.10;3.35;;;;;;;12.76;100.00;102146.41;5052668;28;20041;-72
2023/10/05 03:41:49;;;;;;;13.73;4.03;;;;;;;12.71;100.00;102138.59;5059415;28;20052;-72
2023/10/05 03:44:17;;;;;;;12.50;3.55;;;;;;;12.73;100.00;102146.59;5056697;28;20036;-72
2023/10/05 03:46:46;;;;;;;15.75;3.33;;;;;;;12.69;100.00;102150.44;5051201;28;20131;-72
2023/10/05 03:49:13;;;;;;;16.35;4.13;;;;;;;12.73;100.00;102152.00;5062013;28;20036;-72
2023/10/05 03:51:43;;;;;;;14.55;3.80;;;;;;;12.64;100.00;102152.56;5060850;28;20103;-72
2023/10/05 03:54:08;;;;;;;17.88;3.63;;;;;;;12.69;100.00;102155.84;5057597;28;20025;-72
2023/10/05 03:56:36;;;;;;;13.13;3.85;;;;;;;12.68;100.00;102146.88;5059572;28;20035;-72
2023/10/05 03:59:01;;;;;;;18.85;4.35;;;;;;;12.66;100.00;102150.63;5059028;28;20025;-72
2023/10/05 04:01:27;;;;;;;18.88;3.63;;;;;;;12.66;100.00;102135.31;5056171;28;20031;-72
2023/10/05 04:03:52;;;;;;;15.68;3.72;;;;;;;12.66;100.00;102129.91;5059024;28;20044;-73
2023/10/05 04:06:18;;;;;;;12.85;3.70;;;;;;;12.66;100.00;102137.16;5062218;28;20028;-73
2023/10/05 04:09:03;;;;;;;11.95;3.33;;;;;;;12.64;100.00;102137.25;5066015;28;20051;-73
2023/10/05 04:11:33;;;;;;;12.65;3.55;;;;;;;12.61;100.00;102136.53;5059094;28;20490;-71
2023/10/05 04:14:01;;;;;;;16.95;3.60;;;;;;;12.59;100.00;102137.53;5060253;28;20202;-72
2023/10/05 04:16:28;;;;;;;18.38;3.70;;;;;;;12.62;100.00;102149.06;5058952;28;20028;-72
2023/10/05 04:18:55;;;;;;;14.98;3.78;;;;;;;12.59;100.00;102142.94;5061759;28;20029;-72
2023/10/05 04:21:22;;;;;;;13.82;3.78;;;;;;;12.53;100.00;102145.13;5056158;28;20033;-72
2023/10/05 04:23:52;;;;;;;16.73;4.10;;;;;;;12.54;100.00;102139.63;5059529;28;20154;-72
2023/10/05 04:26:21;;;;;;;13.45;3.17;;;;;;;12.55;100.00;102137.81;5059631;28;20464;-72
2023/10/05 04:28:57;;;;;;;15.35;3.78;;;;;;;12.54;100.00;102145.00;5042514;28;20025;-72
2023/10/05 04:31:25;;;;;;;16.30;3.78;;;;;;;12.54;100.00;102145.00;5044580;28;20111;-73
2023/10/05 04:33:54;;;;;;;17.30;3.92;;;;;;;12.52;100.00;102146.94;5041063;28;20400;-72
2023/10/05 04:36:22;;;;;;;14.05;3.83;;;;;;;12.49;100.00;102132.78;5029897;28;20503;-72
2023/10/05 04:38:48;;;;;;;15.68;3.53;;;;;;;12.45;100.00;102142.88;5046478;28;20033;-73
2023/10/05 04:41:13;;;;;;;17.67;4.03;;;;;;;12.48;100.00;102148.09;5055638;28;20033;-72
2023/10/05 04:43:43;;;;;;;13.90;3.33;;;;;;;12.48;100.00;102140.00;5061600;28;20027;-72
2023/10/05 04:46:09;;;;;;;;;;;;;;;12.52;100.00;102143.41;5061930;28;20529;-72
2023/10/05 04:48:35;;;;;;;14.85;3.60;;;;;;;12.46;100.00;102138.34;5053048;28;19920;-72
2023/10/05 04:51:01;;;;;;;19.88;4.47;;;;;;;12.44;100.00;102138.44;5044343;28;20131;-72
2023/10/05 04:53:27;;;;;;;16.17;4.18;;;;;;;12.48;100.00;102141.84;5058605;28;20020;-72
2023/10/05 04:56:00;;;;;;;14.57;3.63;;;;;;;12.47;100.00;102132.88;5060097;28;20035;-72
2023/10/05 04:58:52;;;;;;;14.35;3.72;;;;;;;12.46;100.00;102146.44;5056422;28;20020;-72
2023/10/05 05:01:35;;;;;;;13.30;4.07;;;;;;;12.46;100.00;102133.84;5057331;28;20048;-72
2023/10/05 05:04:27;;;;;;;17.25;4.78;;;;;;;12.46;100.00;102133.84;5061081;28;20033;-72
2023/10/05 05:06:53;;;;;;;23.40;4.90;;;;;;;12.47;100.00;102132.88;5058137;28;20020;-72
2023/10/05 05:09:19;;;;;;;16.08;3.92;;;;;;;12.45;100.00;102132.09;5061701;28;20020;-72
2023/10/05 05:11:47;;;;;;;14.55;4.18;;;;;;;12.52;100.00;102133.47;5060949;28;20031;-72
2023/10/05 05:14:12;;;;;;;16.20;3.65;;;;;;;12.48;100.00;102141.84;5045547;28;20211;-72
2023/10/05 05:16:39;;;;;;;17.50;3.75;;;;;;;12.48;100.00;102147.25;5059155;28;20484;-72
2023/10/05 05:19:06;;;;;;;14.45;3.55;;;;;;;12.52;100.00;102144.25;5059915;28;20365;-73
2023/10/05 05:21:34;;;;;;;16.27;3.95;;;;;;;12.51;100.00;102144.34;5061070;28;20028;-72
2023/10/05 05:24:00;;;;;;;16.90;4.25;;;;;;;12.51;100.00;102150.59;5057660;28;20124;-71
2023/10/05 05:26:25;;;;;;;11.52;3.22;;;;;;;12.52;100.00;102152.34;5052177;28;20104;-73
2023/10/05 05:28:52;;;;;;;16.77;4.13;;;;;;;12.54;100.00;102158.50;5061052;28;20383;-72
2023/10/05 05:31:18;;;;;;;15.45;3.83;;;;;;;12.50;100.00;102154.25;5054943;28;20066;-72
2023/10/05 05:33:44;;;;;;;15.02;4.18;;;;;;;12.46;100.00;102151.84;5058751;28;20052;-72
2023/10/05 05:36:13;;;;;;;16.42;4.28;;;;;;;12.49;100.00;102151.66;5046225;28;20048;-72
2023/10/05 05:38:47;;;;;;;13.30;3.40;;;;;;;12.47;100.00;102151.75;5062439;28;20040;-72
2023/10/05 05:41:15;;;;;;;16.08;4.18;;;;;;;12.50;100.00;102154.25;5047808;28;20395;-72
2023/10/05 05:43:41;;;;;;;19.42;3.90;;;;;;;12.49;100.00;102162.44;5060246;28;20016;-69
2023/10/05 05:46:14;;;;;;;17.48;4.03;;;;;;;12.52;100.00;102157.75;5035958;28;20040;-70
2023/10/05 05:48:42;;;;;;;11.38;3.67;;;;;;;12.50;100.00;102158.78;5043306;28;20077;-70
2023/10/05 05:51:14;;;;;;;16.75;4.25;;;;;;;12.51;100.00;102161.38;5042211;28;20061;-69
2023/10/05 05:53:40;;;;;;;17.67;4.50;;;;;;;12.53;100.00;102167.56;5047143;28;20021;-70
2023/10/05 05:56:08;;;;;;;13.95;3.70;;;;;;;12.52;100.00;102165.81;5057718;28;20110;-71
2023/10/05 05:58:34;;;;;;;14.07;3.60;;;;;;;12.57;100.00;102169.09;5054044;28;20032;-70
2023/10/05 06:00:59;;;;;;;17.23;4.18;;;;;;;12.59;100.00;102160.91;5045120;28;20100;-69
2023/10/05 06:03:25;;;;;;;16.30;4.22;;;;;;;12.57;100.00;102161.00;5038472;28;20324;-70
2023/10/05 06:05:51;;;;;;;18.48;4.00;;;;;;;12.54;100.00;102158.50;5044018;28;20111;-70
2023/10/05 06:08:17;;;;;;;10.15;3.80;;;;;;;12.61;100.00;102158.13;5042743;28;20025;-71
2023/10/05 06:10:46;;;;;;;18.27;4.00;;;;;;;12.62;100.00;102166.16;5035234;28;20056;-69
2023/10/05 06:13:11;;;;;;;14.13;4.03;;;;;;;12.65;100.00;102163.25;5035937;28;20105;-70
2023/10/05 06:15:38;;;;;;;15.23;3.55;;;;;;;12.65;100.00;102170.47;5041465;28;20055;-70
2023/10/05 06:18:03;;;;;;;14.93;4.15;;;;;;;12.64;100.00;102163.34;5036562;28;20108;-71
2023/10/05 06:20:29;;;;;;;15.85;4.07;;;;;;;12.69;100.00;102174.72;5038217;28;20083;-69
2023/10/05 06:22:54;;;;;;;16.75;4.32;;;;;;;12.71;100.00;102178.22;5040586;28;20029;-69
2023/10/05 06:25:20;;;;;;;15.63;4.30;;;;;;;12.73;100.00;102187.91;5039348;28;20060;-69
2023/10/05 06:27:50;;;;;;;15.90;3.90;;;;;;;12.73;100.00;102184.38;5042964;28;20178;-70
2023/10/05 06:30:16;;;;;;;12.55;3.80;;;;;;;12.77;100.00;102191.31;5039966;28;20021;-70
2023/10/05 06:32:44;;;;;;;14.95;3.80;;;;;;;12.81;100.00;102191.97;5049107;28;20025;-71
2023/10/05 06:35:13;;;;;;;13.30;4.22;;;;;;;12.77;100.00;102194.00;5042839;28;20029;-70
2023/10/05 06:37:42;;;;;;;13.18;4.03;;;;;;;12.79;100.00;102202.88;5050999;28;20025;-71
2023/10/05 06:40:21;;;;;;;16.30;3.95;;;;;;;12.85;100.00;102199.78;5056089;28;20550;-70
2023/10/05 06:42:49;;;;;;;14.63;3.88;;;;;;;12.83;100.00;102206.25;5056204;28;20032;-71
2023/10/05 06:45:15;;;;;;;14.15;4.13;;;;;;;12.85;100.00;102204.31;5048434;28;20020;-70
2023/10/05 06:47:41;;;;;;;15.63;4.43;;;;;;;12.83;100.00;102204.41;5055003;28;20067;-70
2023/10/05 06:50:11;;;;;;;21.92;4.57;;;;;;;12.85;100.00;102213.28;5054189;28;20032;-70
2023/10/05 06:52:42;;;;;;;;;;;;;;;12.90;100.00;102213.03;5054177;28;20558;-73
2023/10/05 06:55:09;;;;;;;17.92;4.47;;;;;;;12.89;100.00;102213.97;5052621;28;19970;-72
2023/10/05 06:57:36;;;;;;;15.60;3.97;;;;;;;12.87;100.00;102219.47;5044237;28;20342;-73
2023/10/05 07:00:15;;;;;;;17.92;4.13;;;;;;;12.92;100.00;102221.88;5054208;28;20028;-73
2023/10/05 07:02:41;;;;;;;16.67;4.53;;;;;;;12.91;100.00;102225.53;5049023;28;20401;-73
2023/10/05 07:05:08;;;;;;;15.45;4.03;;;;;;;12.92;100.00;102235.38;5049556;28;20166;-73
2023/10/05 07:07:34;;;;;;;18.10;4.82;;;;;;;12.92;100.00;102229.97;5047014;28;20508;-72
2023/10/05 07:10:00;;;;;;;16.77;4.20;;;;;;;12.93;100.00;102229.88;5050884;28;20028;-73
2023/10/05 07:12:26;;;;;;;16.23;4.47;;;;;;;12.96;100.00;102241.44;5044694;28;20500;-73
2023/10/05 07:14:56;;;;;;;16.88;4.60;;;;;;;12.98;100.00;102236.81;5045083;28;20221;-73
2023/10/05 07:17:21;;;;;;;18.73;4.38;;;;;;;12.99;100.00;102249.34;5036588;28;20128;-73
2023/10/05 07:19:49;;;;;;;14.77;4.20;;;;;;;13.01;100.00;102245.59;5038024;28;20032;-73
2023/10/05 07:22:15;;;;;;;15.27;4.00;;;;;;;13.05;100.00;102251.69;5036634;28;20029;-73
2023/10/05 07:24:41;;;;;;;20.40;4.78;;;;;;;13.06;100.00;102248.00;5039551;28;20115;-73
2023/10/05 07:27:07;;;;;;;20.15;4.38;;;;;;;13.08;100.00;102243.41;5050335;28;20375;-73
2023/10/05 07:29:32;;;;;;;17.17;4.30;;;;;;;13.09;100.00;102248.69;5044903;28;20178;-73
2023/10/05 07:31:57;;;;;;;18.58;4.47;;;;;;;13.12;100.00;102244.94;5042187;28;20029;-74
2023/10/05 07:34:23;;;;;;;16.83;4.38;;;;;;;13.15;100.00;102265.47;5040025;28;20128;-73
2023/10/05 07:36:50;;;;;;;16.40;4.32;;;;;;;13.20;100.00;102269.63;5037815;28;20020;-73
2023/10/05 07:39:16;;;;;;;16.55;4.65;;;;;;;13.21;100.00;102271.38;5039231;28;20037;-73
2023/10/05 07:41:44;;;;;;;13.73;3.78;;;;;;;13.25;100.00;102272.03;5044337;28;20024;-73
2023/10/05 07:44:09;;;;;;;14.68;3.92;;;;;;;13.26;100.00;102276.47;5040453;28;20032;-73
2023/10/05 07:46:34;;;;;;;16.67;4.50;;;;;;;13.29;100.00;102278.97;5033138;28;20033;-73
2023/10/05 07:48:59;;;;;;;18.58;5.13;;;;;;;13.32;100.00;102269.81;5037558;28;20484;-73
2023/10/05 07:51:25;;;;;;;17.90;4.72;;;;;;;13.34;100.00;102273.28;5040457;28;20066;-73
2023/10/05 07:53:51;;;;;;;15.10;4.45;;;;;;;13.37;100.00;102279.41;5045916;28;20110;-73
2023/10/05 07:56:16;;;;;;;15.13;3.75;;;;;;;13.40;100.00;102287.31;5041756;28;20384;-74
2023/10/05 07:58:44;;;;;;;14.75;3.92;;;;;;;13.42;100.00;102282.69;5054732;28;20135;-73
2023/10/05 08:01:10;;;;;;;18.75;4.40;;;;;;;13.48;100.00;102294.94;5059868;28;20078;-74
2023/10/05 08:03:39;;;;;;;14.57;3.83;;;;;;;13.51;100.00;102289.34;5051560;28;20500;-70
2023/10/05 08:06:12;;;;;;;17.15;3.72;;;;;;;13.55;100.00;102292.72;5050242;28;20554;-69
2023/10/05 08:08:37;;;;;;;16.83;4.25;;;;;;;13.60;100.00;102290.59;5050887;28;20108;-70
2023/10/05 08:11:04;;;;;;;20.30;4.85;;;;;;;13.60;100.00;102285.19;5047230;28;20392;-71
2023/10/05 08:13:29;;;;;;;15.32;3.80;;;;;;;13.62;100.00;102297.66;5039681;28;20362;-70
2023/10/05 08:15:54;;;;;;;17.63;4.32;;;;;;;13.67;100.00;102297.34;5049171;28;20024;-70
2023/10/05 08:18:20;;;;;;;12.30;3.47;;;;;;;13.70;100.00;102296.28;5044732;28;20535;-71
2023/10/05 08:20:45;;;;;;;16.90;4.43;;;;;;;13.72;100.00;102302.44;5039648;28;20029;-69
2023/10/05 08:23:10;;;;;;;13.75;3.53;;;;;;;13.76;100.00;102304.00;5046521;28;20416;-70
2023/10/05 08:25:36;;;;;;;14.15;3.83;;;;;;;13.78;100.00;102307.50;5040099;28;20075;-69
2023/10/05 08:28:02;;;;;;;14.98;4.50;;;;;;;13.80;100.00;102309.09;5038186;28;20341;-70
2023/10/05 08:30:33;;;;;;;15.95;3.70;;;;;;;13.83;100.00;102310.75;5052936;28;20032;-71
2023/10/05 08:33:03;;;;;;;17.88;4.95;;;;;;;13.85;100.00;102308.84;5051201;28;20333;-70
2023/10/05 08:35:40;;;;;;;12.18;3.80;;;;;;;13.86;100.00;102310.56;5051015;28;20041;-69
2023/10/05 08:38:09;;;;;;;17.63;4.28;;;;;;;13.90;100.00;102305.84;5044618;28;20033;-70
2023/10/05 08:43:10;;;;;;;18.33;4.35;;;;;;;13.98;100.00;102315.19;5048727;28;20025;-70
2023/10/05 08:45:47;;;;;;;20.20;4.72;;;;;;;14.03;100.00;102327.56;5054591;28;20044;-69
2023/10/05 08:51:16;;;;;;;14.57;3.95;;;;;;;14.10;100.00;102323.44;5045169;28;20044;-70
2023/10/05 08:53:50;;;;;;;16.13;4.55;;;;;;;14.13;100.00;102328.69;5056967;28;20029;-70
2023/10/05 08:56:18;;;;;;;16.10;4.13;;;;;;;14.17;100.00;102324.78;5047027;28;20081;-70
2023/10/05 08:58:45;;;;;;;14.20;4.25;;;;;;;14.19;100.00;102333.69;5042371;28;20103;-70
2023/10/05 09:01:35;;;;;;;17.17;4.03;;;;;;;14.23;100.00;102334.34;5050083;28;20048;-70
2023/10/05 09:04:23;;;;;;;13.48;3.60;;;;;;;14.25;100.00;102341.41;5036824;28;20036;-70
2023/10/05 09:06:56;;;;;;;15.70;3.90;;;;;;;14.30;100.00;102338.38;5051817;28;20034;-70
2023/10/05 09:09:39;;;;;;;17.40;4.05;;;;;;;14.33;100.00;102347.19;5046900;28;20205;-69
2023/10/05 09:12:34;;;;;;;20.55;3.70;;;;;;;14.37;100.00;102363.22;5038038;28;20087;-69
2023/10/05 09:18:17;;;;;;;13.82;3.53;;;;;;;14.43;100.00;102373.63;5043528;28;20039;-69
2023/10/05 09:20:46;;;;;;;15.25;4.60;;;;;;;14.44;100.00;102373.53;5061736;28;20547;-70
2023/10/05 09:23:13;;;;;;;15.63;3.67;;;;;;;14.45;100.00;102371.69;5043180;28;20016;-69
2023/10/05 09:25:48;;;;;;;17.35;4.00;;;;;;;14.48;100.00;102382.28;5037019;28;20075;-69
2023/10/05 09:28:28;;;;;;;18.80;4.05;;;;;;;14.52;100.00;102375.72;5052819;28;20020;-69
2023/10/05 09:30:59;;;;;;;13.68;4.25;;;;;;;14.55;100.00;102375.50;5060220;28;20085;-71
2023/10/05 09:33:27;;;;;;;13.25;3.38;;;;;;;14.56;100.00;102381.81;5057557;28;20060;-69
2023/10/05 09:36:06;;;;;;;16.83;4.75;;;;;;;14.59;100.00;102384.31;5059008;28;20078;-69
2023/10/05 09:38:35;;;;;;;15.75;3.78;;;;;;;14.60;100.00;102370.69;5045514;28;20036;-70
2023/10/05 09:41:02;;;;;;;15.60;4.18;;;;;;;14.64;100.00;102374.97;5053612;28;20025;-69
2023/10/05 09:43:33;;;;;;;22.20;4.10;;;;;;;14.67;100.00;102371.16;5050683;28;20369;-69
2023/10/05 09:45:59;;;;;;;22.30;4.72;;;;;;;14.68;100.00;102367.50;5045114;28;20028;-70
2023/10/05 09:48:24;;;;;;;16.30;3.95;;;;;;;14.70;100.00;102372.78;5046944;28;20049;-70
2023/10/05 09:50:52;;;;;;;17.60;4.32;;;;;;;14.72;100.00;102373.59;5054691;28;20037;-69
2023/10/05 09:53:18;;;;;;;14.73;4.03;;;;;;;14.72;100.00;102376.28;5033786;28;20104;-69
2023/10/05 09:55:47;;;;;;;13.60;3.88;;;;;;;14.74;100.00;102387.88;5057524;28;20626;-69
2023/10/05 09:58:14;;;;;;;13.10;3.92;;;;;;;14.77;100.00;102377.69;5048884;28;20066;-69
2023/10/05 10:03:05;;;;;;;14.10;3.40;;;;;;;14.80;100.00;102388.34;5054355;28;20033;-69
2023/10/05 10:05:55;;;;;;;15.38;3.72;;;;;;;14.83;100.00;102389.94;5051682;28;20135;-69
2023/10/05 10:08:23;;;;;;;;;;;;;;;14.87;100.00;102386.06;5059859;28;20029;-70
2023/10/05 10:11:06;;;;;;;20.67;5.18;;;;;;;14.87;100.00;102383.38;5054852;28;19924;-70
2023/10/05 10:13:37;;;;;;;16.55;4.07;;;;;;;14.87;100.00;102377.94;5056543;28;20059;-70
2023/10/05 10:16:17;;;;;;;17.63;3.95;;;;;;;14.91;100.00;102375.94;5057815;28;20079;-69
2023/10/05 10:18:44;;;;;;;14.23;3.97;;;;;;;14.91;100.00;102379.50;5049108;28;20055;-70
2023/10/05 10:21:20;;;;;;;18.88;4.50;;;;;;;14.90;100.00;102377.75;5056633;28;20086;-70
2023/10/05 10:23:59;;;;;;;16.10;3.80;;;;;;;14.90;100.00;102380.44;5043606;28;20471;-72
2023/10/05 10:26:25;;;;;;;14.57;4.20;;;;;;;14.92;100.00;102375.81;5060649;28;20080;-72
2023/10/05 10:31:38;;;;;;;15.80;3.95;;;;;;;14.98;100.00;102375.41;5042625;28;20036;-72
2023/10/05 10:34:28;;;;;;;19.25;4.53;;;;;;;15.01;100.00;102369.78;5056170;28;20044;-72
2023/10/05 10:36:57;;;;;;;17.55;4.10;;;;;;;15.05;100.00;102366.84;5052774;28;20033;-73
2023/10/05 10:39:27;;;;;;;13.52;3.83;;;;;;;15.06;100.00;102372.16;5065812;28;20020;-72
2023/10/05 10:42:13;;;;;;;20.90;4.20;;;;;;;15.10;100.00;102380.97;5066529;28;20047;-72
2023/10/05 10:44:58;;;;;;;21.38;4.38;;;;;;;15.13;100.00;102378.03;5061974;28;20175;-72
2023/10/05 10:47:26;;;;;;;16.08;3.55;;;;;;;15.16;100.00;102383.25;5040060;28;20112;-72
2023/10/05 10:50:14;;;;;;;14.75;4.38;;;;;;;15.19;100.00;102385.75;5039912;28;20026;-72
2023/10/05 10:52:40;;;;;;;22.02;4.55;;;;;;;15.21;99.95;102378.34;5063403;28;20043;-73
2023/10/05 10:55:14;;;;;;;17.88;4.13;;;;;;;15.25;100.00;102366.34;5061861;28;20028;-72
2023/10/05 10:57:39;;;;;;;16.00;4.38;;;;;;;15.27;99.95;102364.41;5061657;28;20036;-73
2023/10/05 11:02:49;;;;;;;10.15;3.25;;;;;;;15.37;100.00;102364.63;5059152;28;20622;-72
2023/10/05 11:05:15;;;;;;;12.40;3.95;;;;;;;15.41;100.00;102365.31;5061115;28;20028;-72
2023/10/05 11:07:43;;;;;;;14.93;3.95;;;;;;;15.43;98.32;102364.19;5064735;28;20032;-72
2023/10/05 11:10:21;;;;;;;17.08;4.07;;;;;;;15.47;98.93;102371.13;5064429;28;20024;-72
2023/10/05 11:12:53;;;;;;;16.60;4.10;;;;;;;15.52;100.00;102373.53;5056928;28;20384;-72
2023/10/05 11:15:31;;;;;;;13.07;3.60;;;;;;;15.58;98.67;102364.09;5062134;28;20028;-72
2023/10/05 11:18:00;;;;;;;13.45;3.85;;;;;;;15.61;97.29;102362.06;5063431;28;20059;-72
2023/10/05 11:20:27;;;;;;;14.45;3.75;;;;;;;15.64;97.40;102367.25;5049750;28;20021;-71
2023/10/05 11:23:01;;;;;;;17.75;4.30;;;;;;;15.68;96.94;102368.78;5064276;28;20021;-72
2023/10/05 11:25:35;;;;;;;22.73;5.10;;;;;;;15.73;96.21;102366.59;5051368;28;20024;-72
2023/10/05 11:28:07;;;;;;;15.27;4.25;;;;;;;15.77;97.45;102366.38;5062556;28;20447;-72
2023/10/05 11:30:45;;;;;;;14.20;4.18;;;;;;;15.78;94.66;102368.13;5054373;28;20488;-72
2023/10/05 11:33:15;;;;;;;15.20;4.30;;;;;;;15.83;95.02;102361.41;5045565;28;20476;-73
2023/10/05 11:35:48;;;;;;;15.32;4.00;;;;;;;15.89;97.47;102362.84;5060367;28;20032;-73
2023/10/05 11:38:15;;;;;;;15.23;4.18;;;;;;;15.93;95.48;102358.94;5066878;28;20088;-73
2023/10/05 11:40:53;;;;;;;17.25;5.22;;;;;;;15.96;94.63;102355.09;5063984;28;20120;-73
2023/10/05 11:43:20;;;;;;;17.00;4.60;;;;;;;16.04;96.22;102359.00;5060999;28;20143;-73
2023/10/05 11:48:48;;;;;;;19.05;4.60;;;;;;;16.17;96.39;102348.13;5063748;28;20056;-71
2023/10/05 11:51:19;;;;;;;17.90;4.57;;;;;;;16.22;94.21;102354.09;5049751;28;20028;-73
2023/10/05 11:53:46;;;;;;;15.43;4.63;;;;;;;16.25;95.24;102355.69;5046303;28;20033;-71
2023/10/05 11:56:17;;;;;;;18.42;4.90;;;;;;;16.27;94.24;102361.88;5056840;28;20044;-72